EGPB

Sumburgh Airport

Lerwick, United Kingdom
METAR EGPB 201220Z 20015KT 9999 FEW012 BKN020 12/10 Q1016 TEMPO BKN010
Observed Flight Rules
Oct-20 @ 12:20 UTC (32 minutes ago) Marginal Visual Flight Rules
Wind Visibility Clouds
200° at 15 knots 10,000+ meters
  • Few at 1,200' AGL
  • Broken at 2,000' AGL
Temperatures Readings
Current 12°C / 54°F
Dewpoint 10°C / 50°F
Humidity 88%
Altimeter 30" Hg
Pressure 1016 hPa
Elevation 5
METAR EGPB 201220Z 20015KT 9999 FEW012 BKN020 12/10 Q1016 TEMPO BKN010
Observed Flight Rules
Oct-20 @ 12:20 UTC
(32 minutes ago)
MVFR
Wind Visibility
200° at 15 knots 10,000+ meters
Clouds
  • Few at 1,200' AGL
  • Broken at 2,000' AGL
Temperature Dewpoint
12°C / 54°F 10°C / 50°F
Humidity Altimeter Pressure
88% 30" Hg 1016 hPa